KBILKGGW

Guest
Details From KBIL - Billings Logan Intl
To KGGW - Wokal Fld Glasgow Intl
Flight Number -
Tags Generated
Created
Modified
Stats Distance 165 nm / 306 km
Max Altitude 0 ft / 0 m
Waypoints 2
Social Downloads 1
Likes 0
Share VATSIM

Download

Looking for another format? Having issues loading an existing format? Contact us
Advertisement - Login to hide

Notes

Generated

Route

KBIL KGGW

ID Type Via Altitude Latitude Longitude Leg Dist Tot Dist Heading (true) Name
O KBIL APT - 0 ft / 0 m 45.80919˚ -108.56282˚ - 0 nm - -
O KGGW APT - 0 ft / 0 m 48.21284˚ -106.59991˚ 165 nm 165 nm 28° / 30° Wokal Fld Glasgow Intl

Altitude Profile

Advertisement - Login to hide

Weather


0- 5 10 15 20 25 30 35+ Temperature / ° C

Clouds and Precipitation
Forecast for 2017-12-11 06:00 UTC. Updated 32 minutes ago

Ground ~20,000 ft ~40,000 ft Winds

KBIL

Details ICAO KBIL (BIL)
Name Billings Logan Intl
Region United States
Timezone America/Denver (UTC-7.0)
Stats Elevation 3,652 ft / 1,113 m (AMSL)
Location 45.807706° -108.546410°
Runways 3
Magnetic Variation 10.693° E

METAR

KBIL 110453Z 24014KT 10SM BKN200 08/M12 A3031 RMK AO2 SLP277 T00781117 $

Decode

TAF

TAF KBIL 102338Z 1100/1124 24018KT P6SM SCT150 FM110600 25015KT P6SM SCT200 FM111600 23010KT P6SM FEW150

Decode

Departure Runways

ID Width Length Bearing (true) Bearing (mag) Surface Threshold Offset Overrun Length
07 75 ft / 23 m 5,486 ft / 1,672 m 83.96° 73.27° Asphalt 0 ft / 0 m 0 ft / 0 m
10L 150 ft / 46 m 10,493 ft / 3,198 m 111.77° 101.08° Asphalt 0 ft / 0 m 1,000 ft / 305 m
10R 75 ft / 23 m 3,792 ft / 1,156 m 111.71° 101.02° Asphalt 0 ft / 0 m 0 ft / 0 m
25 75 ft / 23 m 5,486 ft / 1,672 m 263.97° 253.28° Asphalt 0 ft / 0 m 0 ft / 0 m
28L 75 ft / 23 m 3,792 ft / 1,156 m 291.72° 281.03° Asphalt 0 ft / 0 m 0 ft / 0 m
28R 150 ft / 46 m 10,493 ft / 3,198 m 291.80° 281.11° Asphalt 0 ft / 0 m 1,000 ft / 305 m

KGGW

Details ICAO KGGW (GGW)
Name Wokal Fld Glasgow Intl
Region United States
Timezone America/Denver (UTC-7.0)
Stats Elevation 2,294 ft / 699 m (AMSL)
Location 48.212244° -106.602046°
Runways 2
Magnetic Variation 9.908° E

METAR

KGGW 110453Z AUTO 31022KT 10SM CLR 06/M06 A3016 RMK AO2 PK WND 30031/0431 SLP235 T00561061 TSNO

Decode

TAF

KGGW 102323Z 1100/1124 30013G19KT P6SM FEW150 WS020/32040KT FM111000 30011KT P6SM SCT090 BKN120

Decode

Destination Runways

ID Width Length Bearing (true) Bearing (mag) Surface Threshold Offset Overrun Length
08 75 ft / 23 m 4,986 ft / 1,520 m 89.98° 80.07° Asphalt 0 ft / 0 m 1,345 ft / 410 m
12 100 ft / 30 m 4,995 ft / 1,522 m 134.08° 124.17° Asphalt 0 ft / 0 m 900 ft / 274 m
26 75 ft / 23 m 4,986 ft / 1,520 m 270.00° 260.09° Asphalt 0 ft / 0 m 0 ft / 0 m
30 100 ft / 30 m 4,995 ft / 1,522 m 314.09° 304.18° Asphalt 0 ft / 0 m 0 ft / 0 m

Popular Alternatives